Latest Weather Observations for Moorabbin Airport

IDV60901

Issued at 7:35 pm EDT Sunday 26 October 2014 (issued every 10 minutes, with the page automatically refreshed every 10 minutes)

About weather observations | Map of Melbourne area stations | Latest observations for Melbourne area | Other Formats
Station Details ID: 086077 Name: MOORABBIN AIRPORT Lat: -37.98 Lon: 145.10 Height: 12.1 m
Data from the previous 72 hours. | See also: Recent months at Moorabbin Airport
Date/Time
EDT
Tmp

°C
App
Tmp
°C
Dew
Point
°C
Rel
Hum
%
Delta-T

°C
Wind Press
QNH
hPa
Press
MSL
hPa
Rain
since
9 am
mm
Dir
 
Spd
km/h
Gust
km/h
Spd
kts
Gust
kts
26/07:30pm 18.9 17.1 12.2 65 3.7 ESE 13 17 7 9 1008.5 1008.5 0.0
26/07:00pm 20.0 17.9 12.3 61 4.3 ESE 15 19 8 10 1008.6 1008.6 0.0
26/06:30pm 21.1 18.6 12.3 57 5.0 SE 17 20 9 11 1009.1 1009.1 0.0
26/06:00pm 20.6 17.8 11.5 56 5.0 ESE 17 20 9 11 1009.3 1009.3 0.0
26/05:30pm 20.5 18.9 11.4 56 5.0 ESE 11 17 6 9 1009.7 1009.7 0.0
26/05:00pm 19.1 16.9 10.9 59 4.5 S 13 17 7 9 1010.2 1010.2 0.0
26/04:30pm 18.6 16.4 10.7 60 4.3 S 13 17 7 9 1010.7 1010.7 0.0
26/04:00pm 18.5 16.5 10.3 59 4.4 S 11 17 6 9 1011.1 1011.1 0.0
26/03:30pm 17.1 15.4 9.8 62 3.8 S 9 17 5 9 1011.7 1011.7 0.0
26/03:00pm 17.9 16.2 10.0 60 4.2 SSW 9 17 5 9 1012.7 1012.7 0.0
26/02:30pm 17.9 15.6 10.3 61 4.1 SW 13 19 7 10 1012.9 1012.9 0.0
26/02:00pm 18.0 15.4 10.6 62 4.0 WSW 15 24 8 13 1013.6 1013.6 0.0
26/01:30pm 17.0 14.7 10.6 66 3.4 SSW 13 17 7 9 1012.9 1012.9 0.0
26/01:00pm 15.9 13.6 9.1 64 3.5 WSW 11 19 6 10 1013.2 1013.2 0.0
26/12:30pm 17.4 15.6 9.6 60 4.1 NW 9 17 5 9 1013.6 1013.6 0.0
26/12:00pm 16.7 15.4 9.1 61 3.9 E 6 11 3 6 1013.9 1013.9 0.0
26/11:30am 15.8 13.6 9.2 65 3.4 SSW 11 15 6 8 1014.3 1014.3 0.0
26/11:00am 15.4 13.2 9.5 68 3.0 SSW 11 15 6 8 1014.6 1014.6 0.0
26/10:30am 14.7 11.7 9.1 69 2.9 SSW 15 19 8 10 1014.8 1014.8 0.0
26/10:00am 14.7 12.5 9.3 70 2.8 SSW 11 15 6 8 1014.9 1014.9 0.0
26/09:30am 14.4 12.5 9.2 71 2.7 SSW 9 13 5 7 1014.2 1014.2 0.0
26/09:00am 14.2 12.8 9.4 73 2.5 WSW 7 11 4 6 1014.5 1014.5 0.0
26/08:30am 13.9 12.6 9.3 74 2.3 SW 6 7 3 4 1014.5 1014.5 0.0
26/08:00am 13.9 11.7 9.5 75 2.3 E 11 11 6 6 1013.7 1013.7 0.0
26/07:30am 13.6 12.2 9.5 76 2.1 E 7 9 4 5 1013.7 1013.7 0.0
26/07:00am 13.4 12.1 9.3 76 2.1 ESE 6 9 3 5 1013.9 1013.9 0.0
26/06:30am 13.2 11.7 9.1 76 2.1 ESE 7 9 4 5 1013.5 1013.5 0.0
26/06:00am 13.3 11.4 9.2 76 2.1 ESE 9 11 5 6 1013.3 1013.3 0.0
26/05:30am 13.3 11.4 9.2 76 2.1 S 9 11 5 6 1013.5 1013.5 0.0
26/05:00am 13.4 11.2 9.5 77 2.0 S 11 15 6 8 1013.6 1013.6 0.0
26/04:30am 13.4 11.2 9.5 77 2.0 S 11 15 6 8 1013.4 1013.4 0.0
26/04:00am 13.5 11.6 9.2 75 2.2 S 9 13 5 7 1013.4 1013.4 0.0
26/03:30am 13.6 11.8 9.3 75 2.2 SSE 9 11 5 6 1013.2 1013.2 0.0
26/03:00am 13.6 11.4 9.3 75 2.2 S 11 15 6 8 1013.5 1013.5 0.0
26/02:30am 13.7 11.5 9.4 75 2.2 SSE 11 13 6 7 1013.6 1013.6 0.0
26/02:00am 13.8 11.6 9.5 75 2.2 S 11 15 6 8 1014.3 1014.3 0.0
26/01:30am 13.8 12.4 9.5 75 2.2 S 7 11 4 6 1014.7 1014.7 0.0
26/01:00am 13.9 12.1 9.5 75 2.3 S 9 13 5 7 1014.8 1014.8 0.0
26/12:30am 13.9 12.2 9.7 76 2.2 S 9 13 5 7 1015.4 1015.4 0.0
26/12:00am 14.1 12.4 9.9 76 2.2 S 9 13 5 7 1015.7 1015.7 0.0
 
Date/Time
EDT
Tmp

°C
App
Tmp
°C
Dew
Point
°C
Rel
Hum
%
Delta-T

°C
Wind Press
QNH
hPa
Press
MSL
hPa
Rain
since
9 am
mm
Dir
 
Spd
km/h
Gust
km/h
Spd
kts
Gust
kts
25/11:30pm 14.2 12.2 10.0 76 2.2 S 11 13 6 7 1016.1 1016.1 0.0
25/11:00pm 14.2 12.2 10.2 77 2.1 S 11 13 6 7 1016.2 1016.2 0.0
25/10:30pm 14.2 11.8 10.2 77 2.1 S 13 17 7 9 1016.4 1016.4 0.0
25/10:00pm 14.1 12.1 10.3 78 2.0 SSE 11 15 6 8 1016.5 1016.5 0.0
25/09:30pm 14.1 11.4 10.3 78 2.0 SSE 15 19 8 10 1016.3 1016.3 0.0
25/09:00pm 14.1 11.3 10.1 77 2.1 SSE 15 20 8 11 1016.2 1016.2 0.0
25/08:30pm 14.7 12.4 10.3 75 2.3 S 13 17 7 9 1016.1 1016.1 0.0
25/08:00pm 14.9 11.5 10.5 75 2.3 S 19 24 10 13 1015.8 1015.8 0.0
25/07:30pm 15.3 12.0 9.4 68 3.0 S 17 22 9 12 1015.6 1015.6 0.0
25/07:00pm 15.7 12.1 9.8 68 3.1 S 19 28 10 15 1015.3 1015.3 0.0
25/06:30pm 16.8 13.4 10.4 66 3.4 SSE 19 24 10 13 1015.0 1015.0 0.0
25/06:00pm 17.4 13.5 10.8 65 3.5 S 22 28 12 15 1014.8 1014.8 0.0
25/05:30pm 17.4 13.3 11.4 68 3.3 SW 24 35 13 19 1014.8 1014.8 0.0
25/05:00pm 17.3 12.8 11.3 68 3.2 SSW 26 35 14 19 1014.7 1014.7 0.0
25/04:30pm 17.5 13.0 11.5 68 3.3 SW 26 33 14 18 1014.7 1014.7 0.0
25/04:00pm 16.8 12.5 10.6 67 3.3 SSW 24 32 13 17 1014.8 1014.8 0.0
25/03:30pm 17.5 13.2 10.9 65 3.6 SSW 24 28 13 15 1014.9 1014.9 0.0
25/03:00pm 17.0 13.5 10.8 67 3.3 SSW 20 26 11 14 1015.3 1015.3 0.0
25/02:30pm 16.7 13.2 10.8 68 3.2 SSW 20 28 11 15 1015.7 1015.7 0.0
25/02:00pm 16.6 13.6 10.5 67 3.2 SW 17 20 9 11 1016.0 1016.0 0.0
25/01:30pm 16.0 12.9 10.3 69 3.0 SSW 17 20 9 11 1016.1 1016.1 0.0
25/01:00pm 17.3 14.4 10.9 66 3.4 SW 17 22 9 12 1016.4 1016.4 0.0
25/12:30pm 16.5 14.2 10.4 67 3.2 SSW 13 24 7 13 1016.5 1016.5 0.0
25/12:00pm 16.8 14.4 11.3 70 3.0 SSW 15 19 8 10 1017.1 1017.1 0.0
25/11:30am 15.4 13.4 10.2 71 2.7 SSW 11 17 6 9 1017.5 1017.5 0.0
25/11:00am 15.2 12.8 10.0 71 2.7 SSW 13 19 7 10 1017.6 1017.6 0.0
25/10:30am 14.7 11.2 10.3 75 2.3 S 19 22 10 12 1017.6 1017.6 0.0
25/10:00am 14.7 11.2 10.3 75 2.3 S 19 22 10 12 1017.7 1017.7 0.0
25/09:30am 14.7 11.9 11.3 80 1.8 S 17 20 9 11 1017.6 1017.6 0.0
25/09:00am 14.8 12.9 10.6 76 2.2 SSE 11 17 6 9 1017.8 1017.8 0.0
25/08:30am 14.4 13.0 11.0 80 1.8 SE 9 13 5 7 1017.8 1017.8 0.0
25/08:00am 14.3 13.4 11.3 82 1.6 SE 7 9 4 5 1017.6 1017.6 0.0
25/07:30am 14.2 12.9 11.2 82 1.6 SSE 9 13 5 7 1017.3 1017.3 0.0
25/07:00am 14.1 12.7 10.9 81 1.7 SSW 9 13 5 7 1017.1 1017.1 0.0
25/06:30am 14.1 12.3 10.9 81 1.7 SSW 11 17 6 9 1017.0 1017.0 0.0
25/06:00am 14.0 11.9 11.2 83 1.5 SSW 13 15 7 8 1016.7 1016.7 0.0
25/05:30am 14.1 13.3 11.8 86 1.2 S 7 9 4 5 1016.6 1016.6 0.0
25/05:00am 14.0 13.3 12.0 88 1.1 S 7 11 4 6 1016.3 1016.3 0.0
25/04:30am 14.2 13.0 11.5 84 1.4 SSW 9 11 5 6 1016.2 1016.2 0.0
25/04:00am 14.2 12.6 11.7 85 1.3 SSW 11 15 6 8 1016.3 1016.3 0.0
25/03:30am 14.1 12.5 11.6 85 1.3 WSW 11 15 6 8 1016.2 1016.2 0.0
25/03:23am 14.1 12.6 11.8 86 1.2 W 11 17 6 9 1016.2 1016.2 0.0
25/03:01am 13.8 12.1 12.4 91 0.8 WSW 13 17 7 9 1016.3 1016.3 0.0
25/03:00am 13.8 12.1 12.4 91 0.8 WSW 13 17 7 9 1016.3 1016.3 0.0
25/02:30am 13.6 12.2 13.3 98 0.2 S 13 17 7 9 1016.5 1016.5 0.0
25/02:00am 13.9 11.5 12.5 91 0.8 SSW 17 20 9 11 1016.5 1016.5 0.0
25/01:53am 14.3 12.2 12.3 88 1.1 SSW 15 20 8 11 1016.5 1016.5 0.0
25/01:30am 14.7 12.5 12.0 84 1.5 SSW 15 20 8 11 1016.6 1016.6 0.0
25/01:00am 14.9 12.7 12.2 84 1.5 SSW 15 20 8 11 1016.6 1016.6 0.0
25/12:30am 15.1 13.7 12.1 82 1.6 SSW 11 15 6 8 1016.6 1016.6 0.0
25/12:00am 15.2 13.8 12.1 82 1.7 S 11 15 6 8 1016.5 1016.5 0.0
 
Date/Time
EDT
Tmp

°C
App
Tmp
°C
Dew
Point
°C
Rel
Hum
%
Delta-T

°C
Wind Press
QNH
hPa
Press
MSL
hPa
Rain
since
9 am
mm
Dir
 
Spd
km/h
Gust
km/h
Spd
kts
Gust
kts
24/11:59pm 15.2 13.8 12.1 82 1.7 SSW 11 15 6 8 1016.5 1016.5 0.0
24/11:30pm 15.2 13.4 12.0 81 1.7 S 13 17 7 9 1016.3 1016.3 0.0
24/11:00pm 15.3 12.2 12.2 82 1.7 S 20 30 11 16 1016.4 1016.4 0.0
24/10:30pm 15.1 12.2 12.4 84 1.5 SSW 19 26 10 14 1016.0 1016.0 0.0
24/10:00pm 15.1 12.1 12.6 85 1.4 SSW 20 28 11 15 1015.6 1015.6 0.0
24/09:30pm 15.3 12.4 12.8 85 1.4 SSW 20 30 11 16 1015.2 1015.2 0.0
24/09:00pm 15.4 11.8 13.1 86 1.3 SSW 24 35 13 19 1014.3 1014.3 0.0
24/08:34pm 15.6 11.0 13.4 87 1.2 SSW 30 39 16 21 1013.6 1013.6 0.0
24/08:30pm 15.6 11.1 13.8 89 1.0 SSW 30 37 16 20 1013.5 1013.5 0.0
24/08:26pm 15.6 11.1 13.8 89 1.0 SSW 30 41 16 22 1013.4 1013.4 0.0
24/08:01pm 15.6 12.5 14.6 94 0.6 SSW 24 35 13 19 1012.8 1012.8 0.0
24/08:00pm 15.6 12.5 14.5 93 0.6 SSW 24 35 13 19 1012.7 1012.7 0.0
24/07:57pm 15.7 12.6 14.4 92 0.7 SSW 24 41 13 22 1012.8 1012.8 0.0
24/07:30pm 17.3 12.6 14.2 82 1.8 SSW 32 39 17 21 1011.8 1011.8 0.0
24/07:00pm 19.1 16.0 14.4 74 2.7 SW 24 33 13 18 1011.3 1011.3 0.0
24/06:30pm 22.2 20.1 15.3 65 4.1 SW 20 30 11 16 1010.5 1010.5 0.0
24/06:00pm 24.2 21.6 13.7 52 6.2 SSW 20 26 11 14 1010.0 1010.0 0.0
24/05:30pm 26.3 23.5 12.7 43 7.9 SSW 19 26 10 14 1009.7 1009.7 0.0
24/05:00pm 27.1 25.3 12.0 39 8.7 SSW 13 17 7 9 1009.5 1009.5 0.0
24/04:30pm 28.7 27.8 12.6 37 9.4 SW 9 15 5 8 1009.5 1009.5 0.0
24/04:00pm 28.1 25.6 11.2 35 9.7 SW 15 22 8 12 1009.8 1009.8 0.0
24/03:30pm 27.6 25.5 12.4 39 8.8 SW 15 22 8 12 1010.0 1010.0 0.0
24/03:00pm 27.4 26.6 14.1 44 7.9 WSW 11 17 6 9 1010.0 1010.0 0.0
24/02:30pm 25.9 23.6 14.1 48 7.0 SW 19 26 10 14 1010.4 1010.4 0.0
24/02:00pm 26.6 25.4 14.0 46 7.5 WSW 13 20 7 11 1010.5 1010.5 0.0
24/01:30pm 25.4 24.7 14.2 50 6.6 WSW 11 22 6 12 1010.7 1010.7 0.0
24/01:00pm 22.3 22.3 15.2 64 4.2 SW 9 15 5 8 1011.0 1011.0 0.0
24/12:30pm 22.2 22.6 15.3 65 4.1 SW 7 17 4 9 1011.1 1011.1 0.0
24/12:00pm 20.1 19.1 14.7 71 3.2 SW 13 17 7 9 1011.4 1011.4 0.0
24/11:30am 19.6 17.9 14.6 73 2.9 SW 17 22 9 12 1011.6 1011.6 0.0
24/11:00am 20.3 19.3 14.7 70 3.3 SSW 13 19 7 10 1011.5 1011.5 0.0
24/10:30am 19.5 19.2 14.5 73 2.9 SSW 9 13 5 7 1011.6 1011.6 0.0
24/10:00am 20.6 21.4 14.7 69 3.5 E 4 7 2 4 1011.7 1011.7 0.0
24/09:30am 18.9 19.9 14.4 75 2.6 E 2 9 1 5 1011.7 1011.7 0.0
24/09:00am 17.0 17.2 14.1 83 1.7 N 6 9 3 5 1012.2 1012.2 0.0
24/08:53am 16.8 16.9 14.4 86 1.4 N 7 9 4 5 1012.3 1012.3 0.0
24/08:30am 15.7 15.4 14.4 92 0.7 N 9 11 5 6 1012.2 1012.2 0.0
24/08:00am 14.8 14.0 14.0 95 0.5 N 11 15 6 8 1012.2 1012.2 0.0
24/07:38am 15.0 14.8 14.7 98 0.2 N 9 11 5 6 1012.4 1012.4 0.0
24/07:30am 14.8 14.6 14.8 100 0.0 N 9 11 5 6 1012.4 1012.4 0.0
24/07:22am 14.5 14.8 14.5 100 0.0 N 6 9 3 5 1012.3 1012.3 0.0
24/07:10am 13.9 15.1 13.7 99 0.1 CALM 0 0 0 0 1012.3 1012.3 0.0
24/07:00am 13.3 14.3 13.1 99 0.1 CALM 0 0 0 0 1012.4 1012.4 0.0
24/06:34am 12.8 13.6 12.6 99 0.1 CALM 0 0 0 0 1012.4 1012.4 0.0
24/06:32am 12.7 13.5 12.4 98 0.2 CALM 0 0 0 0 1012.4 1012.4 0.0
24/06:30am 12.5 13.2 12.2 98 0.2 CALM 0 0 0 0 1012.5 1012.5 0.0
24/06:00am 12.5 13.2 12.2 98 0.2 CALM 0 0 0 0 1012.4 1012.4 0.0
24/05:56am 12.5 13.2 12.2 98 0.2 CALM 0 0 0 0 1012.4 1012.4 0.0
24/05:30am 12.8 12.4 12.5 98 0.2 N 6 7 3 4 1012.4 1012.4 0.0
24/05:27am 13.2 13.0 12.9 98 0.2 N 6 7 3 4 1012.4 1012.4 0.0
24/05:00am 13.0 12.7 12.7 98 0.2 NNW 6 9 3 5 1012.5 1012.5 0.0
24/04:30am 13.1 12.5 12.3 95 0.4 N 7 9 4 5 1012.4 1012.4 0.0
24/04:00am 13.7 13.3 12.9 95 0.4 NNW 7 9 4 5 1012.7 1012.7 0.0
24/03:30am 13.9 13.6 12.8 93 0.6 N 6 7 3 4 1012.7 1012.7 0.0
24/03:00am 13.8 12.9 12.7 93 0.6 ENE 9 11 5 6 1012.9 1012.9 0.0
24/02:30am 12.9 11.9 11.1 89 0.9 NE 7 9 4 5 1013.5 1013.5 0.0
24/02:00am 13.9 13.7 11.9 88 1.1 NE 4 6 2 3 1013.9 1013.9 0.0
24/01:30am 14.3 13.6 12.0 86 1.2 NE 7 11 4 6 1014.1 1014.1 0.0
24/01:00am 15.1 14.2 12.6 85 1.4 NE 9 9 5 5 1014.4 1014.4 0.0
24/12:30am 15.4 14.5 12.7 84 1.5 ENE 9 15 5 8 1014.6 1014.6 0.0
24/12:00am 15.5 13.6 13.0 85 1.4 ESE 15 22 8 12 1014.8 1014.8 0.0
 
Date/Time
EDT
Tmp

°C
App
Tmp
°C
Dew
Point
°C
Rel
Hum
%
Delta-T

°C
Wind Press
QNH
hPa
Press
MSL
hPa
Rain
since
9 am
mm
Dir
 
Spd
km/h
Gust
km/h
Spd
kts
Gust
kts
23/11:30pm 15.7 13.0 13.0 84 1.5 ESE 19 30 10 16 1014.9 1014.9 0.0
23/11:00pm 15.9 12.7 13.0 83 1.6 ESE 22 28 12 15 1015.1 1015.1 0.0
23/10:30pm 15.9 12.3 13.0 83 1.6 ESE 24 32 13 17 1015.2 1015.2 0.0
23/10:00pm 16.2 12.2 13.1 82 1.7 ESE 26 35 14 19 1015.3 1015.3 0.0
23/09:30pm 16.1 11.7 12.8 81 1.8 ESE 28 39 15 21 1015.2 1015.2 0.0
23/09:00pm 16.1 10.9 12.8 81 1.8 ESE 32 41 17 22 1015.0 1015.0 0.0
23/08:30pm 16.3 11.2 13.0 81 1.8 ESE 32 41 17 22 1014.9 1014.9 0.0
23/08:00pm 16.4 11.1 13.1 81 1.8 ESE 33 43 18 23 1014.9 1014.9 0.0

Latest Capital City Observations: Canberra | Sydney | Melbourne | Brisbane | Adelaide | Perth | Hobart | Darwin

Other Formats:

Comma delimited format used in spreadsheet applications
http://www.bom.gov.au/fwo/IDV60901/IDV60901.94870.axf

JavaScript Object Notation format (JSON) in row-major order
http://www.bom.gov.au/fwo/IDV60901/IDV60901.94870.json